createdAt,value
2019-02-25T00:00:23.358Z,4.58
2019-02-25T00:02:51.784Z,5.35
2019-02-25T00:05:20.140Z,5.67
2019-02-25T00:07:48.458Z,5.10
2019-02-25T00:10:16.965Z,5.15
2019-02-25T00:12:45.328Z,4.60
2019-02-25T00:15:13.788Z,4.10
2019-02-25T00:17:42.149Z,3.72
2019-02-25T00:20:11.893Z,3.65
2019-02-25T00:22:40.359Z,3.77
2019-02-25T00:25:10.382Z,3.50
2019-02-25T00:27:38.873Z,4.25
2019-02-25T00:30:15.221Z,4.33
2019-02-25T00:32:43.680Z,4.28
2019-02-25T00:35:12.181Z,5.03
2019-02-25T00:37:40.611Z,5.45
2019-02-25T00:40:11.286Z,4.90
2019-02-25T00:42:39.829Z,5.70
2019-02-25T00:45:16.164Z,6.28
2019-02-25T00:47:44.685Z,5.45
2019-02-25T00:50:20.812Z,6.33
2019-02-25T00:52:49.226Z,5.95
2019-02-25T00:55:17.776Z,7.20
2019-02-25T00:57:46.274Z,5.95
2019-02-25T01:00:20.221Z,6.53
2019-02-25T01:02:48.507Z,5.08
2019-02-25T01:05:17.053Z,4.90
2019-02-25T01:07:45.446Z,5.53
2019-02-25T01:10:14.304Z,4.78
2019-02-25T01:12:43.353Z,4.42
2019-02-25T01:15:11.982Z,5.25
2019-02-25T01:17:40.465Z,4.15
2019-02-25T01:20:13.779Z,4.70
2019-02-25T01:22:42.235Z,3.70
2019-02-25T01:25:12.146Z,3.62
2019-02-25T01:27:40.584Z,5.42
2019-02-25T01:30:12.323Z,5.08
2019-02-25T01:32:40.866Z,5.17
2019-02-25T01:35:11.644Z,5.40
2019-02-25T01:37:40.045Z,4.92
2019-02-25T01:40:11.772Z,5.47
2019-02-25T01:42:40.129Z,5.83
2019-02-25T01:45:13.554Z,3.67
2019-02-25T01:47:42.017Z,4.22
2019-02-25T01:50:11.181Z,4.95
2019-02-25T01:52:39.688Z,6.08
2019-02-25T01:55:10.791Z,6.53
2019-02-25T01:57:39.234Z,7.42
2019-02-25T02:00:13.935Z,8.08
2019-02-25T02:02:42.375Z,7.05
2019-02-25T02:05:10.742Z,8.30
2019-02-25T02:07:39.330Z,7.17
2019-02-25T02:10:10.394Z,8.35
2019-02-25T02:12:38.943Z,8.73
2019-02-25T02:15:10.581Z,8.48
2019-02-25T02:17:38.993Z,5.78
2019-02-25T02:20:10.308Z,5.30
2019-02-25T02:22:58.214Z,6.00
2019-02-25T02:25:26.585Z,6.33
2019-02-25T02:27:55.053Z,6.47
2019-02-25T02:30:23.589Z,7.53
2019-02-25T02:32:51.996Z,8.43
2019-02-25T02:35:20.441Z,9.45
2019-02-25T02:37:48.934Z,8.93
2019-02-25T02:40:17.329Z,7.78
2019-02-25T02:42:51.579Z,7.25
2019-02-25T02:45:35.272Z,5.15
2019-02-25T02:48:12.999Z,6.85
2019-02-25T02:50:41.519Z,5.95
2019-02-25T02:53:09.929Z,7.08
2019-02-25T02:55:38.294Z,7.53
2019-02-25T02:58:06.808Z,7.90
2019-02-25T03:00:35.244Z,8.48
2019-02-25T03:03:03.593Z,9.28
2019-02-25T03:05:32.238Z,7.45
2019-02-25T03:08:00.665Z,6.05
2019-02-25T03:10:29.090Z,6.00
2019-02-25T03:12:57.586Z,7.08
2019-02-25T03:15:38.719Z,6.75
2019-02-25T03:18:07.114Z,6.30
2019-02-25T03:20:35.582Z,4.58
2019-02-25T03:23:04.059Z,5.55
2019-02-25T03:25:32.514Z,4.42
2019-02-25T03:28:00.930Z,3.87
2019-02-25T03:30:29.339Z,4.28
2019-02-25T03:32:57.701Z,4.33
2019-02-25T03:35:26.212Z,3.50
2019-02-25T03:37:54.703Z,3.33
2019-02-25T03:40:23.977Z,4.58
2019-02-25T03:42:52.478Z,5.70
2019-02-25T03:45:21.024Z,5.75
2019-02-25T03:47:49.399Z,7.58
2019-02-25T03:50:17.814Z,7.67
2019-02-25T03:52:46.260Z,10.58
2019-02-25T03:55:17.268Z,10.23
2019-02-25T03:57:45.727Z,8.30
2019-02-25T04:00:21.959Z,8.85
2019-02-25T04:02:50.488Z,7.50
2019-02-25T04:05:18.964Z,10.23
2019-02-25T04:07:47.391Z,10.03
2019-02-25T04:10:15.894Z,11.08
2019-02-25T04:12:44.399Z,8.50
2019-02-25T04:15:21.252Z,11.97
2019-02-25T04:17:49.750Z,12.20
2019-02-25T04:20:18.338Z,11.40
2019-02-25T04:22:46.828Z,10.48
2019-02-25T04:25:15.375Z,13.93
2019-02-25T04:27:43.833Z,15.10
2019-02-25T04:30:15.024Z,13.78
2019-02-25T04:32:43.546Z,13.55
2019-02-25T04:35:13.138Z,13.08
2019-02-25T04:37:41.602Z,13.22
2019-02-25T04:40:12.173Z,12.05
2019-02-25T04:42:40.554Z,9.80
2019-02-25T04:45:14.477Z,10.32
2019-02-25T04:47:43.006Z,9.98
2019-02-25T04:50:12.419Z,12.33
2019-02-25T04:52:40.883Z,16.27
2019-02-25T04:55:10.975Z,15.38
2019-02-25T04:57:39.395Z,17.02
2019-02-25T05:00:16.311Z,17.65
2019-02-25T05:02:44.748Z,17.37
2019-02-25T05:05:13.244Z,21.23
2019-02-25T05:07:41.774Z,20.10
2019-02-25T05:10:14.915Z,19.52
2019-02-25T05:12:44.844Z,16.95
2019-02-25T05:15:14.958Z,15.25
2019-02-25T05:17:43.357Z,15.88
2019-02-25T05:20:11.866Z,15.95
2019-02-25T05:22:40.362Z,18.02
2019-02-25T05:25:10.649Z,13.70
2019-02-25T05:27:39.116Z,16.93
2019-02-25T05:30:13.604Z,17.20
2019-02-25T05:32:41.963Z,16.37
2019-02-25T05:35:11.554Z,17.20
2019-02-25T05:37:39.995Z,18.52
2019-02-25T05:40:17.120Z,16.02
2019-02-25T05:42:45.545Z,17.60
2019-02-25T05:45:15.027Z,18.52
2019-02-25T05:47:43.594Z,16.80
2019-02-25T05:50:16.073Z,21.65
2019-02-25T05:52:44.494Z,17.77
2019-02-25T05:55:14.384Z,15.83
2019-02-25T05:57:42.821Z,15.75
2019-02-25T06:00:15.705Z,14.58
2019-02-25T06:02:44.103Z,15.50
2019-02-25T06:05:12.562Z,15.63
2019-02-25T06:07:41.044Z,15.93
2019-02-25T06:10:10.720Z,16.10
2019-02-25T06:12:39.048Z,17.92
2019-02-25T06:15:10.414Z,14.20
2019-02-25T06:17:38.886Z,16.75
2019-02-25T06:20:14.966Z,18.65
2019-02-25T06:22:44.614Z,18.40
2019-02-25T06:25:14.019Z,16.95
2019-02-25T06:27:42.450Z,16.02
2019-02-25T06:30:16.438Z,16.15
2019-02-25T06:32:44.920Z,14.35
2019-02-25T06:35:13.584Z,15.93
2019-02-25T06:37:42.031Z,15.50
2019-02-25T06:40:16.418Z,18.02
2019-02-25T06:42:44.822Z,16.20
2019-02-25T06:45:15.724Z,19.07
2019-02-25T06:47:44.169Z,14.10
2019-02-25T06:50:12.628Z,14.70
2019-02-25T06:52:41.128Z,14.10
2019-02-25T06:55:12.057Z,13.93
2019-02-25T06:57:40.444Z,15.28
2019-02-25T07:00:14.344Z,15.10
2019-02-25T07:02:42.727Z,10.93
2019-02-25T07:05:28.844Z,13.30
2019-02-25T07:07:58.848Z,13.40
2019-02-25T07:10:28.856Z,13.25
2019-02-25T07:12:58.971Z,11.50
2019-02-25T07:15:41.115Z,14.13
2019-02-25T07:18:23.142Z,12.65
2019-02-25T07:20:59.451Z,12.33
2019-02-25T07:23:41.606Z,8.85
2019-02-25T07:26:14.310Z,14.70
2019-02-25T07:28:54.381Z,14.63
2019-02-25T07:31:27.026Z,17.50
2019-02-25T07:33:57.062Z,14.73
2019-02-25T07:36:29.882Z,17.37
2019-02-25T07:38:59.898Z,17.00
2019-02-25T07:41:29.909Z,16.42
2019-02-25T07:44:02.853Z,16.73
2019-02-25T07:46:50.885Z,17.25
2019-02-25T07:49:37.283Z,15.03
2019-02-25T07:54:57.619Z,13.97
2019-02-25T07:57:33.488Z,14.85
2019-02-25T08:00:05.959Z,16.80
2019-02-25T08:02:41.760Z,16.75
2019-02-25T08:05:14.306Z,18.23
2019-02-25T08:07:44.229Z,15.28
2019-02-25T08:10:14.252Z,17.25
2019-02-25T08:13:00.746Z,17.67
2019-02-25T08:15:30.859Z,17.90
2019-02-25T08:18:12.799Z,17.87
2019-02-25T08:20:52.040Z,20.45
2019-02-25T08:23:22.149Z,18.12
2019-02-25T08:26:01.157Z,14.85
2019-02-25T08:28:40.360Z,17.10
2019-02-25T08:31:13.569Z,15.08
2019-02-25T08:33:52.533Z,11.75
2019-02-25T08:36:42.357Z,12.47
2019-02-25T08:39:12.791Z,10.95
2019-02-25T08:41:43.197Z,11.90
2019-02-25T08:44:13.366Z,10.80
2019-02-25T08:46:49.226Z,12.37
2019-02-25T08:49:21.919Z,11.10
2019-02-25T08:51:50.397Z,12.23
2019-02-25T08:54:19.004Z,13.68
2019-02-25T08:56:47.372Z,11.22
2019-02-25T08:59:15.837Z,8.78
2019-02-25T09:01:44.313Z,11.60
2019-02-25T09:04:12.713Z,13.00
2019-02-25T09:06:41.234Z,13.15
2019-02-25T09:09:09.750Z,10.28
2019-02-25T09:11:38.253Z,12.70
2019-02-25T09:14:06.613Z,11.68
2019-02-25T09:16:35.089Z,14.10
2019-02-25T09:19:03.522Z,15.15
2019-02-25T09:21:33.013Z,12.40
2019-02-25T09:24:01.485Z,12.68
2019-02-25T09:26:29.865Z,13.78
2019-02-25T09:28:58.426Z,13.25
2019-02-25T09:31:26.881Z,16.87
2019-02-25T09:33:55.350Z,13.90
2019-02-25T09:36:25.611Z,13.08
2019-02-25T09:38:53.954Z,15.90
2019-02-25T09:41:29.681Z,17.48
2019-02-25T09:43:52.501Z,20.37
2019-02-25T09:46:20.941Z,18.98
2019-02-25T09:48:49.360Z,19.62
2019-02-25T09:51:17.775Z,23.27
2019-02-25T09:53:46.147Z,18.60
2019-02-25T09:56:14.641Z,18.37
2019-02-25T09:58:42.950Z,19.65
2019-02-25T10:01:11.911Z,16.52
2019-02-25T10:03:40.314Z,19.48
2019-02-25T10:06:08.667Z,20.08
2019-02-25T10:08:37.164Z,17.25
2019-02-25T10:11:05.634Z,19.00
2019-02-25T10:13:34.048Z,21.12
2019-02-25T10:16:02.493Z,18.57
2019-02-25T10:18:31.036Z,16.12
2019-02-25T10:20:59.422Z,14.68
2019-02-25T10:23:27.921Z,13.50
2019-02-25T10:25:56.256Z,13.53
2019-02-25T10:28:24.597Z,13.35
2019-02-25T10:30:53.343Z,16.23
2019-02-25T10:33:21.838Z,14.53
2019-02-25T10:35:50.310Z,16.67
2019-02-25T10:38:19.512Z,16.23
2019-02-25T10:40:49.618Z,12.65
2019-02-25T10:43:18.884Z,14.53
2019-02-25T10:45:47.365Z,15.05
2019-02-25T10:48:17.789Z,13.62
2019-02-25T10:50:45.979Z,13.03
2019-02-25T10:53:15.608Z,11.93
2019-02-25T10:56:03.150Z,13.35
2019-02-25T10:58:33.525Z,13.50
2019-02-25T11:01:01.941Z,17.80
2019-02-25T11:03:30.520Z,17.95
2019-02-25T11:06:00.820Z,13.22
2019-02-25T11:08:30.054Z,12.20
2019-02-25T11:11:09.113Z,14.83
2019-02-25T11:13:37.514Z,18.27
2019-02-25T11:16:05.983Z,15.40
2019-02-25T11:18:34.520Z,14.68
2019-02-25T11:21:06.075Z,14.45
2019-02-25T11:23:35.413Z,13.28
2019-02-25T11:26:04.046Z,11.85
2019-02-25T11:28:35.646Z,13.50
2019-02-25T11:31:02.541Z,11.28
2019-02-25T11:33:32.571Z,13.00
2019-02-25T11:36:04.158Z,10.80
2019-02-25T11:38:36.679Z,11.80
2019-02-25T11:41:07.097Z,10.05
2019-02-25T11:43:35.029Z,14.90
2019-02-25T11:46:03.462Z,13.43
2019-02-25T11:48:32.069Z,14.18
2019-02-25T11:51:00.568Z,16.32
2019-02-25T11:53:29.024Z,13.88
2019-02-25T11:55:58.554Z,11.57
2019-02-25T11:58:26.856Z,12.95
2019-02-25T12:00:55.369Z,12.03
2019-02-25T12:03:24.001Z,14.60
2019-02-25T12:05:52.638Z,15.18
2019-02-25T12:08:22.819Z,10.70
2019-02-25T12:10:51.338Z,12.13
2019-02-25T12:13:19.731Z,12.20
2019-02-25T12:15:48.162Z,12.33
2019-02-25T12:18:16.675Z,12.07
2019-02-25T12:20:45.112Z,12.98
2019-02-25T12:23:13.620Z,12.45
2019-02-25T12:25:42.112Z,11.80
2019-02-25T12:28:10.536Z,16.07
2019-02-25T12:30:38.972Z,16.02
2019-02-25T12:33:10.578Z,14.63
2019-02-25T12:35:38.967Z,14.23
2019-02-25T12:38:07.324Z,10.50
2019-02-25T12:40:35.863Z,8.68
2019-02-25T12:43:04.328Z,9.18
2019-02-25T12:45:35.046Z,12.65
2019-02-25T12:48:03.619Z,10.23
2019-02-25T12:50:32.098Z,8.60
2019-02-25T12:53:02.107Z,9.23
2019-02-25T12:55:30.669Z,8.60
2019-02-25T12:57:59.131Z,10.10
2019-02-25T13:00:27.604Z,8.98
2019-02-25T13:02:57.766Z,8.50
2019-02-25T13:05:26.475Z,8.40
2019-02-25T13:07:55.001Z,8.80
2019-02-25T13:10:23.492Z,9.15
2019-02-25T13:12:52.196Z,7.42
2019-02-25T13:15:25.006Z,9.78
2019-02-25T13:17:53.879Z,8.75
2019-02-25T13:20:25.438Z,7.55
2019-02-25T13:22:53.859Z,7.53
2019-02-25T13:25:30.697Z,8.28
2019-02-25T13:28:04.065Z,7.55
2019-02-25T13:30:31.923Z,7.08
2019-02-25T13:33:00.445Z,6.35
2019-02-25T13:35:28.917Z,8.00
2019-02-25T13:37:57.360Z,8.43
2019-02-25T13:40:25.831Z,8.18
2019-02-25T13:42:54.588Z,7.72
2019-02-25T13:45:23.050Z,5.85
2019-02-25T13:47:57.679Z,6.95
2019-02-25T13:50:26.109Z,6.87
2019-02-25T13:52:54.478Z,5.83
2019-02-25T13:55:23.194Z,5.47
2019-02-25T13:57:51.655Z,4.97
2019-02-25T14:00:21.646Z,6.17
2019-02-25T14:02:50.186Z,5.72
2019-02-25T14:05:18.620Z,4.85
2019-02-25T14:07:47.039Z,6.65
2019-02-25T14:10:19.126Z,7.17
2019-02-25T14:12:47.590Z,7.70
2019-02-25T14:15:23.911Z,6.85
2019-02-25T14:20:22.249Z,9.38
2019-02-25T14:22:50.735Z,8.33
2019-02-25T14:25:22.315Z,9.78
2019-02-25T14:27:50.837Z,9.45
2019-02-25T14:30:21.785Z,9.58
2019-02-25T14:32:53.007Z,8.15
2019-02-25T14:35:22.342Z,9.05
2019-02-25T14:37:50.884Z,7.65
2019-02-25T14:40:21.765Z,8.85
2019-02-25T14:42:52.013Z,8.90
2019-02-25T14:45:21.966Z,10.03
2019-02-25T14:47:55.361Z,9.00
2019-02-25T14:50:21.823Z,7.60
2019-02-25T14:52:50.354Z,8.03
2019-02-25T14:55:18.784Z,7.40
2019-02-25T14:57:47.213Z,7.90
2019-02-25T15:00:28.858Z,10.40
2019-02-25T15:02:56.724Z,9.70
2019-02-25T15:05:25.156Z,8.30
2019-02-25T15:07:53.726Z,8.40
2019-02-25T15:10:26.560Z,7.33
2019-02-25T15:12:56.499Z,6.58
2019-02-25T15:15:23.599Z,6.10
2019-02-25T15:17:52.755Z,6.70
2019-02-25T15:20:23.369Z,6.92
2019-02-25T15:22:52.332Z,7.33
2019-02-25T15:25:21.233Z,8.15
2019-02-25T15:27:49.647Z,8.98
2019-02-25T15:30:25.102Z,8.13
2019-02-25T15:32:57.118Z,8.73
2019-02-25T15:35:26.513Z,10.78
2019-02-25T15:37:55.490Z,9.23
2019-02-25T15:40:25.065Z,8.68
2019-02-25T15:43:04.887Z,8.93
2019-02-25T15:45:37.247Z,9.38
2019-02-25T15:48:06.121Z,9.05
2019-02-25T15:50:34.576Z,8.50
2019-02-25T15:53:04.951Z,9.05
2019-02-25T15:55:33.138Z,9.00
2019-02-25T15:58:01.637Z,10.30
2019-02-25T16:00:32.156Z,10.82
2019-02-25T16:03:00.494Z,8.50
2019-02-25T16:05:29.705Z,8.35
2019-02-25T16:08:00.640Z,11.12
2019-02-25T16:10:29.269Z,9.20
2019-02-25T16:12:58.261Z,15.95
2019-02-25T16:15:27.910Z,14.80
2019-02-25T16:17:56.344Z,12.88
2019-02-25T16:20:25.680Z,12.43
2019-02-25T16:22:56.347Z,11.57
2019-02-25T16:25:27.090Z,11.05
2019-02-25T16:27:56.496Z,10.48
2019-02-25T16:30:26.348Z,12.63
2019-02-25T16:32:55.059Z,10.18
2019-02-25T16:35:23.559Z,11.80
2019-02-25T16:37:53.084Z,15.72
2019-02-25T16:40:24.452Z,15.78
2019-02-25T16:42:54.987Z,15.80
2019-02-25T16:45:32.390Z,13.30
2019-02-25T16:47:57.880Z,12.73
2019-02-25T16:50:26.364Z,12.73
2019-02-25T16:52:55.848Z,11.15
2019-02-25T16:55:27.492Z,10.72
2019-02-25T16:57:55.329Z,11.18
2019-02-25T17:00:30.072Z,13.18
2019-02-25T17:03:01.383Z,15.93
2019-02-25T17:05:29.476Z,15.72
2019-02-25T17:07:57.827Z,13.40
2019-02-25T17:10:29.046Z,12.07
2019-02-25T17:12:56.883Z,10.28
2019-02-25T17:15:26.864Z,10.60
2019-02-25T17:17:58.559Z,8.88
2019-02-25T17:20:27.818Z,10.78
2019-02-25T17:22:55.820Z,10.48
2019-02-25T17:25:26.896Z,10.18
2019-02-25T17:27:54.365Z,10.85
2019-02-25T17:30:24.174Z,10.85
2019-02-25T17:32:52.631Z,11.50
2019-02-25T17:35:25.401Z,13.80
2019-02-25T17:37:53.411Z,14.78
2019-02-25T17:40:22.576Z,12.47
2019-02-25T17:42:52.070Z,15.20
2019-02-25T17:45:27.697Z,12.75
2019-02-25T17:47:58.528Z,13.08
2019-02-25T17:50:27.066Z,8.90
2019-02-25T17:52:55.535Z,7.90
2019-02-25T17:55:31.739Z,7.87
2019-02-25T17:58:01.064Z,8.68
2019-02-25T18:00:34.327Z,7.33
2019-02-25T18:03:03.686Z,8.58
2019-02-25T18:05:34.078Z,7.90
2019-02-25T18:08:02.997Z,11.30
2019-02-25T18:10:32.364Z,16.05
2019-02-25T18:13:02.005Z,16.35
2019-02-25T18:15:32.920Z,15.35
2019-02-25T18:18:01.401Z,17.62
2019-02-25T18:20:29.933Z,14.30
2019-02-25T18:22:58.719Z,14.10
2019-02-25T18:25:27.274Z,18.62
2019-02-25T18:27:55.814Z,17.48
2019-02-25T18:30:28.395Z,15.95
2019-02-25T18:32:58.335Z,19.52
2019-02-25T18:35:27.223Z,21.95
2019-02-25T18:37:57.986Z,21.73
2019-02-25T18:40:26.198Z,23.00
2019-02-25T18:42:56.435Z,20.57
2019-02-25T18:45:25.519Z,22.75
2019-02-25T18:47:54.074Z,24.90
2019-02-25T18:50:24.134Z,25.23
2019-02-25T18:52:54.657Z,29.75
2019-02-25T18:55:26.956Z,23.05
2019-02-25T18:57:55.135Z,25.75
2019-02-25T19:00:35.162Z,24.67
2019-02-25T19:03:04.769Z,37.23
2019-02-25T19:05:33.586Z,28.83
2019-02-25T19:08:02.693Z,30.62
2019-02-25T19:10:31.075Z,31.68
2019-02-25T19:13:01.035Z,28.75
2019-02-25T19:15:29.783Z,30.82
2019-02-25T19:17:58.231Z,28.67
2019-02-25T19:20:26.662Z,25.97
2019-02-25T19:22:58.168Z,31.97
2019-02-25T19:25:25.891Z,25.20
2019-02-25T19:27:56.381Z,25.97
2019-02-25T19:30:25.365Z,24.65
2019-02-25T19:32:54.534Z,25.25
2019-02-25T19:35:25.769Z,21.75
2019-02-25T19:37:53.220Z,21.93
2019-02-25T19:40:24.500Z,21.75
2019-02-25T19:42:54.206Z,22.80
2019-02-25T19:45:23.565Z,24.87
2019-02-25T19:47:52.037Z,22.65
2019-02-25T19:50:21.893Z,24.12
2019-02-25T19:52:50.344Z,24.37
2019-02-25T19:55:20.643Z,23.95
2019-02-25T19:57:49.324Z,24.52
2019-02-25T20:00:22.334Z,21.50
2019-02-25T20:02:51.081Z,20.57
2019-02-25T20:05:21.840Z,20.75
2019-02-25T20:07:50.331Z,23.98
2019-02-25T20:10:19.152Z,20.82
2019-02-25T20:12:50.050Z,17.70
2019-02-25T20:15:25.134Z,18.50
2019-02-25T20:17:55.310Z,23.92
2019-02-25T20:20:25.575Z,26.95
2019-02-25T20:22:54.289Z,26.33
2019-02-25T20:25:24.627Z,29.27
2019-02-25T20:27:55.101Z,29.02
2019-02-25T20:30:27.700Z,24.75
2019-02-25T20:32:55.350Z,25.92
2019-02-25T20:35:25.089Z,24.05
2019-02-25T20:37:55.697Z,24.52
2019-02-25T20:40:26.662Z,21.42
2019-02-25T20:42:56.457Z,18.55
2019-02-25T20:45:30.460Z,23.07
2019-02-25T20:47:59.666Z,23.60
2019-02-25T20:50:29.799Z,22.15
2019-02-25T20:53:02.316Z,21.57
2019-02-25T20:55:29.757Z,24.02
2019-02-25T20:57:59.429Z,23.70
2019-02-25T21:00:28.041Z,21.45
2019-02-25T21:02:56.573Z,22.90
2019-02-25T21:05:27.295Z,23.95
2019-02-25T21:07:57.125Z,21.87
2019-02-25T21:10:27.364Z,18.48
2019-02-25T21:12:57.146Z,18.32
2019-02-25T21:15:29.502Z,21.62
2019-02-25T21:17:59.936Z,22.30
2019-02-25T21:20:28.852Z,25.95
2019-02-25T21:23:02.962Z,26.05
2019-02-25T21:25:29.139Z,23.77
2019-02-25T21:27:59.926Z,22.87
2019-02-25T21:30:28.294Z,20.95
2019-02-25T21:32:58.826Z,20.15
2019-02-25T21:35:28.270Z,21.68
2019-02-25T21:37:56.877Z,19.15
2019-02-25T21:40:27.775Z,20.88
2019-02-25T21:42:56.658Z,19.73
2019-02-25T21:45:29.022Z,19.65
2019-02-25T21:47:56.558Z,21.10
2019-02-25T21:50:28.743Z,23.12
2019-02-25T21:52:56.350Z,22.20
2019-02-25T21:55:26.185Z,21.17
2019-02-25T21:57:56.883Z,18.57
2019-02-25T22:00:29.210Z,20.48
2019-02-25T22:02:56.692Z,17.15
2019-02-25T22:05:25.254Z,20.48
2019-02-25T22:07:56.630Z,18.87
2019-02-25T22:10:23.732Z,21.87
2019-02-25T22:12:52.247Z,21.87
2019-02-25T22:15:22.408Z,19.10
2019-02-25T22:17:53.225Z,20.10
2019-02-25T22:20:22.100Z,18.17
2019-02-25T22:22:54.581Z,16.10
2019-02-25T22:25:22.122Z,18.27
2019-02-25T22:27:50.609Z,16.70
2019-02-25T22:30:19.038Z,16.05
2019-02-25T22:32:47.396Z,15.60
2019-02-25T22:35:15.841Z,15.50
2019-02-25T22:38:03.649Z,15.30
2019-02-25T22:40:34.949Z,14.33
2019-02-25T22:43:03.218Z,14.65
2019-02-25T22:45:33.102Z,14.03
2019-02-25T22:48:01.766Z,15.18
2019-02-25T22:50:31.143Z,17.00
2019-02-25T22:53:01.608Z,16.00
2019-02-25T22:55:30.401Z,16.10
2019-02-25T22:57:58.869Z,13.62
2019-02-25T23:00:36.947Z,13.83
2019-02-25T23:03:05.424Z,14.60
2019-02-25T23:05:33.945Z,13.05
2019-02-25T23:08:23.586Z,15.75
2019-02-25T23:10:54.037Z,14.80
2019-02-25T23:13:22.649Z,15.32
2019-02-25T23:15:53.526Z,15.70
2019-02-25T23:18:24.851Z,14.60
2019-02-25T23:20:53.133Z,14.07
2019-02-25T23:23:25.435Z,13.30
2019-02-25T23:25:54.168Z,13.30
2019-02-25T23:28:23.474Z,14.00
2019-02-25T23:30:53.296Z,16.77
2019-02-25T23:33:24.597Z,14.90
2019-02-25T23:35:54.127Z,14.73
2019-02-25T23:38:23.134Z,16.65
2019-02-25T23:40:51.753Z,14.75
2019-02-25T23:43:20.194Z,12.18
2019-02-25T23:45:48.543Z,12.23
2019-02-25T23:48:16.980Z,10.85
2019-02-25T23:50:45.359Z,9.75
2019-02-25T23:53:13.806Z,10.70
2019-02-25T23:55:45.160Z,10.18
2019-02-25T23:58:14.354Z,12.30
